Weather at Drvengrad Heliport

Public forecast

Using degrees Celsius for public forecast. Weather courtesy of forecast.io.

Closest aviation weather report (METAR) to Drvengrad Heliport

Closest report is Morava Airport, 46.8 nm (86.6 km) E.

2024/05/22 08:30 (retrieved 23 minutes ago)

LYKV 220830Z VRB01KT 9999 FEW030TCU SCT035 22/18 Q1011 NOSIG

Closest aviation forecast (TAF) to Drvengrad Heliport

Closest forecast is Morava Airport, 46.8 nm (86.6 km) E.

2024/05/22 06:00 (retrieved 3 hours ago)

TAF LYKV 220500Z 2206/2306 24004KT 3000 BR BKN005 TX24/2213Z TN13/2304Z BECMG 2206/2207 9999 NSW SCT030 TEMPO 2209/2217 28016G28KT 3000 TSRA SCT027CB BKN033 TEMPO 2221/2224 3000 BR TEMPO 2300/2306 5000 SHRA SCT025TCU BKN030